sensor_id;sensor_type;location;lat;lon;timestamp;temperature;humidity
64654;DHT22;51065;48.884;12.598;2023-03-23T00:02:26;6.90;99.90
64654;DHT22;51065;48.884;12.598;2023-03-23T00:04:53;6.90;99.90
64654;DHT22;51065;48.884;12.598;2023-03-23T00:07:22;6.90;99.90
64654;DHT22;51065;48.884;12.598;2023-03-23T00:09:54;6.80;99.90
64654;DHT22;51065;48.884;12.598;2023-03-23T00:12:25;6.90;99.90
64654;DHT22;51065;48.884;12.598;2023-03-23T00:14:55;7.00;99.90
64654;DHT22;51065;48.884;12.598;2023-03-23T00:17:21;7.00;99.90
64654;DHT22;51065;48.884;12.598;2023-03-23T00:19:46;7.00;99.90
64654;DHT22;51065;48.884;12.598;2023-03-23T00:22:13;6.90;99.90
64654;DHT22;51065;48.884;12.598;2023-03-23T00:24:40;6.90;99.90
64654;DHT22;51065;48.884;12.598;2023-03-23T00:27:06;6.80;99.90
64654;DHT22;51065;48.884;12.598;2023-03-23T00:29:31;6.70;99.90
64654;DHT22;51065;48.884;12.598;2023-03-23T00:31:57;6.70;99.90
64654;DHT22;51065;48.884;12.598;2023-03-23T00:34:23;6.70;99.90
64654;DHT22;51065;48.884;12.598;2023-03-23T00:36:52;6.70;99.90
64654;DHT22;51065;48.884;12.598;2023-03-23T00:39:19;6.70;99.90
64654;DHT22;51065;48.884;12.598;2023-03-23T00:41:45;6.70;99.90
64654;DHT22;51065;48.884;12.598;2023-03-23T00:44:12;6.60;99.90
64654;DHT22;51065;48.884;12.598;2023-03-23T00:46:46;6.60;99.90
64654;DHT22;51065;48.884;12.598;2023-03-23T00:49:15;6.50;99.90
64654;DHT22;51065;48.884;12.598;2023-03-23T00:51:41;6.50;99.90
64654;DHT22;51065;48.884;12.598;2023-03-23T00:54:07;6.50;99.90
64654;DHT22;51065;48.884;12.598;2023-03-23T00:56:33;6.50;99.90
64654;DHT22;51065;48.884;12.598;2023-03-23T00:58:59;6.40;99.90
64654;DHT22;51065;48.884;12.598;2023-03-23T01:01:25;6.30;99.90
64654;DHT22;51065;48.884;12.598;2023-03-23T01:03:50;6.30;99.90
64654;DHT22;51065;48.884;12.598;2023-03-23T01:06:18;6.20;99.90
64654;DHT22;51065;48.884;12.598;2023-03-23T01:08:43;6.10;99.90
64654;DHT22;51065;48.884;12.598;2023-03-23T01:11:14;6.10;99.90
64654;DHT22;51065;48.884;12.598;2023-03-23T01:13:44;6.10;99.90
64654;DHT22;51065;48.884;12.598;2023-03-23T01:16:10;6.00;99.90
64654;DHT22;51065;48.884;12.598;2023-03-23T01:18:37;5.90;99.90
64654;DHT22;51065;48.884;12.598;2023-03-23T01:21:07;5.90;99.90
64654;DHT22;51065;48.884;12.598;2023-03-23T01:23:33;5.80;99.90
64654;DHT22;51065;48.884;12.598;2023-03-23T01:26:03;5.70;99.90
64654;DHT22;51065;48.884;12.598;2023-03-23T01:28:29;5.80;99.90
64654;DHT22;51065;48.884;12.598;2023-03-23T01:31:00;5.90;99.90
64654;DHT22;51065;48.884;12.598;2023-03-23T01:33:26;5.90;99.90
64654;DHT22;51065;48.884;12.598;2023-03-23T01:35:51;5.90;99.90
64654;DHT22;51065;48.884;12.598;2023-03-23T01:38:17;5.90;99.90
64654;DHT22;51065;48.884;12.598;2023-03-23T01:40:43;6.00;99.90
64654;DHT22;51065;48.884;12.598;2023-03-23T01:43:13;5.90;99.90
64654;DHT22;51065;48.884;12.598;2023-03-23T01:45:40;5.90;99.90
64654;DHT22;51065;48.884;12.598;2023-03-23T01:48:10;6.00;99.90
64654;DHT22;51065;48.884;12.598;2023-03-23T01:50:45;6.00;99.90
64654;DHT22;51065;48.884;12.598;2023-03-23T01:53:12;6.20;99.90
64654;DHT22;51065;48.884;12.598;2023-03-23T01:55:40;6.30;99.90
64654;DHT22;51065;48.884;12.598;2023-03-23T01:58:07;6.30;99.90
64654;DHT22;51065;48.884;12.598;2023-03-23T02:00:34;6.20;99.90
64654;DHT22;51065;48.884;12.598;2023-03-23T02:03:00;6.20;99.90
64654;DHT22;51065;48.884;12.598;2023-03-23T02:05:31;6.20;99.90
64654;DHT22;51065;48.884;12.598;2023-03-23T02:07:59;6.30;99.90
64654;DHT22;51065;48.884;12.598;2023-03-23T02:10:30;6.30;99.90
64654;DHT22;51065;48.884;12.598;2023-03-23T02:12:56;6.40;99.90
64654;DHT22;51065;48.884;12.598;2023-03-23T02:15:24;6.40;99.90
64654;DHT22;51065;48.884;12.598;2023-03-23T02:20:38;6.40;99.90
64654;DHT22;51065;48.884;12.598;2023-03-23T02:23:21;6.40;99.90
64654;DHT22;51065;48.884;12.598;2023-03-23T02:26:06;6.40;99.90
64654;DHT22;51065;48.884;12.598;2023-03-23T02:34:28;6.30;99.90
64654;DHT22;51065;48.884;12.598;2023-03-23T02:37:09;6.40;99.90
64654;DHT22;51065;48.884;12.598;2023-03-23T02:39:47;6.50;99.90
64654;DHT22;51065;48.884;12.598;2023-03-23T02:42:17;6.50;99.90
64654;DHT22;51065;48.884;12.598;2023-03-23T02:44:45;6.50;99.90
64654;DHT22;51065;48.884;12.598;2023-03-23T02:47:17;6.60;99.90
64654;DHT22;51065;48.884;12.598;2023-03-23T02:49:46;6.60;99.90
64654;DHT22;51065;48.884;12.598;2023-03-23T02:52:17;6.70;99.90
64654;DHT22;51065;48.884;12.598;2023-03-23T02:54:46;6.70;99.90
64654;DHT22;51065;48.884;12.598;2023-03-23T02:57:12;6.70;99.90
64654;DHT22;51065;48.884;12.598;2023-03-23T02:59:39;6.60;99.90
64654;DHT22;51065;48.884;12.598;2023-03-23T03:02:21;6.60;99.90
64654;DHT22;51065;48.884;12.598;2023-03-23T03:04:58;6.60;99.90
64654;DHT22;51065;48.884;12.598;2023-03-23T03:10:10;6.30;99.90
64654;DHT22;51065;48.884;12.598;2023-03-23T03:13:06;6.30;99.90
64654;DHT22;51065;48.884;12.598;2023-03-23T03:15:57;6.30;99.90
64654;DHT22;51065;48.884;12.598;2023-03-23T03:18:28;6.30;99.90
64654;DHT22;51065;48.884;12.598;2023-03-23T03:21:00;6.40;99.90
64654;DHT22;51065;48.884;12.598;2023-03-23T03:23:28;6.40;99.90
64654;DHT22;51065;48.884;12.598;2023-03-23T03:25:55;6.50;99.90
64654;DHT22;51065;48.884;12.598;2023-03-23T03:28:23;6.60;99.90
64654;DHT22;51065;48.884;12.598;2023-03-23T03:30:55;6.60;99.90
64654;DHT22;51065;48.884;12.598;2023-03-23T03:33:23;6.70;99.90
64654;DHT22;51065;48.884;12.598;2023-03-23T03:35:54;6.70;99.90
64654;DHT22;51065;48.884;12.598;2023-03-23T03:38:20;6.70;99.90
64654;DHT22;51065;48.884;12.598;2023-03-23T03:40:46;6.70;99.90
64654;DHT22;51065;48.884;12.598;2023-03-23T03:43:12;6.70;99.90
64654;DHT22;51065;48.884;12.598;2023-03-23T03:45:38;6.90;99.90
64654;DHT22;51065;48.884;12.598;2023-03-23T03:48:03;6.90;99.90
64654;DHT22;51065;48.884;12.598;2023-03-23T03:50:29;6.90;99.90
64654;DHT22;51065;48.884;12.598;2023-03-23T03:52:55;6.90;99.90
64654;DHT22;51065;48.884;12.598;2023-03-23T03:55:21;6.90;99.90
64654;DHT22;51065;48.884;12.598;2023-03-23T03:57:47;6.90;99.90
64654;DHT22;51065;48.884;12.598;2023-03-23T04:00:13;7.00;99.90
64654;DHT22;51065;48.884;12.598;2023-03-23T04:02:45;7.00;99.90
64654;DHT22;51065;48.884;12.598;2023-03-23T04:05:16;7.00;99.90
64654;DHT22;51065;48.884;12.598;2023-03-23T04:07:42;7.00;99.90
64654;DHT22;51065;48.884;12.598;2023-03-23T04:10:09;7.00;99.90
64654;DHT22;51065;48.884;12.598;2023-03-23T04:12:36;7.00;99.90
64654;DHT22;51065;48.884;12.598;2023-03-23T04:15:03;7.00;99.90
64654;DHT22;51065;48.884;12.598;2023-03-23T04:17:28;7.10;99.90
64654;DHT22;51065;48.884;12.598;2023-03-23T04:19:55;7.10;99.90
64654;DHT22;51065;48.884;12.598;2023-03-23T04:22:26;7.20;99.90
64654;DHT22;51065;48.884;12.598;2023-03-23T04:24:59;7.20;99.90
64654;DHT22;51065;48.884;12.598;2023-03-23T04:27:27;7.20;99.90
64654;DHT22;51065;48.884;12.598;2023-03-23T04:29:55;7.20;99.90
64654;DHT22;51065;48.884;12.598;2023-03-23T04:32:21;7.30;99.90
64654;DHT22;51065;48.884;12.598;2023-03-23T04:34:47;7.30;99.90
64654;DHT22;51065;48.884;12.598;2023-03-23T04:37:14;7.30;99.90
64654;DHT22;51065;48.884;12.598;2023-03-23T04:39:39;7.40;99.90
64654;DHT22;51065;48.884;12.598;2023-03-23T04:42:05;7.40;99.90
64654;DHT22;51065;48.884;12.598;2023-03-23T04:44:30;7.50;99.90
64654;DHT22;51065;48.884;12.598;2023-03-23T04:47:00;7.60;99.90
64654;DHT22;51065;48.884;12.598;2023-03-23T04:49:26;7.60;99.90
64654;DHT22;51065;48.884;12.598;2023-03-23T04:51:52;7.60;99.90
64654;DHT22;51065;48.884;12.598;2023-03-23T04:54:17;7.60;99.90
64654;DHT22;51065;48.884;12.598;2023-03-23T04:56:43;7.70;99.90
64654;DHT22;51065;48.884;12.598;2023-03-23T04:59:09;7.70;99.90
64654;DHT22;51065;48.884;12.598;2023-03-23T05:01:34;7.70;99.90
64654;DHT22;51065;48.884;12.598;2023-03-23T05:04:03;7.70;99.90
64654;DHT22;51065;48.884;12.598;2023-03-23T05:06:28;7.70;99.90
64654;DHT22;51065;48.884;12.598;2023-03-23T05:08:54;7.70;99.90
64654;DHT22;51065;48.884;12.598;2023-03-23T05:11:20;7.60;99.90
64654;DHT22;51065;48.884;12.598;2023-03-23T05:13:46;7.70;99.90
64654;DHT22;51065;48.884;12.598;2023-03-23T05:16:12;7.70;99.90
64654;DHT22;51065;48.884;12.598;2023-03-23T05:18:37;7.70;99.90
64654;DHT22;51065;48.884;12.598;2023-03-23T05:21:03;7.70;99.90
64654;DHT22;51065;48.884;12.598;2023-03-23T05:23:29;7.60;99.90
64654;DHT22;51065;48.884;12.598;2023-03-23T05:25:57;7.70;99.90
64654;DHT22;51065;48.884;12.598;2023-03-23T05:28:26;7.70;99.90
64654;DHT22;51065;48.884;12.598;2023-03-23T05:30:52;7.70;99.90
64654;DHT22;51065;48.884;12.598;2023-03-23T05:33:19;7.70;99.90
64654;DHT22;51065;48.884;12.598;2023-03-23T05:35:46;7.70;99.90
64654;DHT22;51065;48.884;12.598;2023-03-23T05:38:12;7.70;99.90
64654;DHT22;51065;48.884;12.598;2023-03-23T05:40:40;7.70;99.90
64654;DHT22;51065;48.884;12.598;2023-03-23T05:43:07;7.70;99.90
64654;DHT22;51065;48.884;12.598;2023-03-23T05:45:33;7.70;99.90
64654;DHT22;51065;48.884;12.598;2023-03-23T05:47:59;7.70;99.90
64654;DHT22;51065;48.884;12.598;2023-03-23T05:50:25;7.70;99.90
64654;DHT22;51065;48.884;12.598;2023-03-23T05:52:50;7.80;99.90
64654;DHT22;51065;48.884;12.598;2023-03-23T05:55:16;7.90;99.90
64654;DHT22;51065;48.884;12.598;2023-03-23T05:57:42;7.90;99.90
64654;DHT22;51065;48.884;12.598;2023-03-23T06:00:08;7.90;99.90
64654;DHT22;51065;48.884;12.598;2023-03-23T06:02:48;8.00;99.90
64654;DHT22;51065;48.884;12.598;2023-03-23T06:05:14;8.00;99.90
64654;DHT22;51065;48.884;12.598;2023-03-23T06:07:41;8.00;99.90
64654;DHT22;51065;48.884;12.598;2023-03-23T06:10:07;8.00;99.90
64654;DHT22;51065;48.884;12.598;2023-03-23T06:12:34;8.00;99.90
64654;DHT22;51065;48.884;12.598;2023-03-23T06:15:00;8.00;99.90
64654;DHT22;51065;48.884;12.598;2023-03-23T06:17:26;8.00;99.90
64654;DHT22;51065;48.884;12.598;2023-03-23T06:19:52;8.00;99.90
64654;DHT22;51065;48.884;12.598;2023-03-23T06:22:18;8.00;99.90
64654;DHT22;51065;48.884;12.598;2023-03-23T06:24:44;8.00;99.90
64654;DHT22;51065;48.884;12.598;2023-03-23T06:27:10;8.00;99.90
64654;DHT22;51065;48.884;12.598;2023-03-23T06:29:37;8.10;99.90
64654;DHT22;51065;48.884;12.598;2023-03-23T06:32:04;8.10;99.90
64654;DHT22;51065;48.884;12.598;2023-03-23T06:34:30;8.10;99.90
64654;DHT22;51065;48.884;12.598;2023-03-23T06:36:58;8.20;99.90
64654;DHT22;51065;48.884;12.598;2023-03-23T06:39:24;8.20;99.90
64654;DHT22;51065;48.884;12.598;2023-03-23T06:41:50;8.20;99.90
64654;DHT22;51065;48.884;12.598;2023-03-23T06:44:16;8.30;99.90
64654;DHT22;51065;48.884;12.598;2023-03-23T06:46:42;8.40;99.90
64654;DHT22;51065;48.884;12.598;2023-03-23T06:49:08;8.50;99.90
64654;DHT22;51065;48.884;12.598;2023-03-23T06:51:34;8.50;99.90
64654;DHT22;51065;48.884;12.598;2023-03-23T06:54:00;8.70;99.90
64654;DHT22;51065;48.884;12.598;2023-03-23T06:56:26;8.80;99.90
64654;DHT22;51065;48.884;12.598;2023-03-23T06:58:52;9.00;99.90
64654;DHT22;51065;48.884;12.598;2023-03-23T07:01:17;9.00;99.90
64654;DHT22;51065;48.884;12.598;2023-03-23T07:03:43;9.10;99.90
64654;DHT22;51065;48.884;12.598;2023-03-23T07:06:09;9.00;99.90
64654;DHT22;51065;48.884;12.598;2023-03-23T07:08:35;9.10;99.90
64654;DHT22;51065;48.884;12.598;2023-03-23T07:11:02;9.20;99.90
64654;DHT22;51065;48.884;12.598;2023-03-23T07:13:28;9.30;99.90
64654;DHT22;51065;48.884;12.598;2023-03-23T07:15:53;9.50;99.90
64654;DHT22;51065;48.884;12.598;2023-03-23T07:18:20;9.60;99.90
64654;DHT22;51065;48.884;12.598;2023-03-23T07:20:52;9.70;99.90
64654;DHT22;51065;48.884;12.598;2023-03-23T07:23:19;9.80;99.90
64654;DHT22;51065;48.884;12.598;2023-03-23T07:25:45;10.10;99.90
64654;DHT22;51065;48.884;12.598;2023-03-23T07:28:12;10.10;99.90
64654;DHT22;51065;48.884;12.598;2023-03-23T07:30:38;10.00;99.90
64654;DHT22;51065;48.884;12.598;2023-03-23T07:33:06;10.00;99.90
64654;DHT22;51065;48.884;12.598;2023-03-23T07:35:32;10.10;99.90
64654;DHT22;51065;48.884;12.598;2023-03-23T07:37:58;10.20;99.90
64654;DHT22;51065;48.884;12.598;2023-03-23T07:40:24;10.20;99.90
64654;DHT22;51065;48.884;12.598;2023-03-23T07:43:11;10.10;99.90
64654;DHT22;51065;48.884;12.598;2023-03-23T07:45:37;10.10;99.90
64654;DHT22;51065;48.884;12.598;2023-03-23T07:48:03;10.10;99.90
64654;DHT22;51065;48.884;12.598;2023-03-23T07:50:28;10.10;99.90
64654;DHT22;51065;48.884;12.598;2023-03-23T07:52:55;10.10;99.90
64654;DHT22;51065;48.884;12.598;2023-03-23T07:55:21;10.20;99.90
64654;DHT22;51065;48.884;12.598;2023-03-23T07:57:47;10.10;99.90
64654;DHT22;51065;48.884;12.598;2023-03-23T08:00:15;10.20;99.90
64654;DHT22;51065;48.884;12.598;2023-03-23T08:02:48;10.30;99.90
64654;DHT22;51065;48.884;12.598;2023-03-23T08:05:17;10.40;99.90
64654;DHT22;51065;48.884;12.598;2023-03-23T08:07:48;10.50;99.90
64654;DHT22;51065;48.884;12.598;2023-03-23T08:10:15;10.60;99.90
64654;DHT22;51065;48.884;12.598;2023-03-23T08:12:44;10.80;99.90
64654;DHT22;51065;48.884;12.598;2023-03-23T08:15:12;10.90;99.90
64654;DHT22;51065;48.884;12.598;2023-03-23T08:17:39;10.90;99.90
64654;DHT22;51065;48.884;12.598;2023-03-23T08:20:06;11.00;99.90
64654;DHT22;51065;48.884;12.598;2023-03-23T08:22:41;11.10;99.90
64654;DHT22;51065;48.884;12.598;2023-03-23T08:25:10;11.20;99.90
64654;DHT22;51065;48.884;12.598;2023-03-23T08:27:36;11.40;99.90
64654;DHT22;51065;48.884;12.598;2023-03-23T08:30:03;11.30;99.90
64654;DHT22;51065;48.884;12.598;2023-03-23T08:32:30;11.40;99.90
64654;DHT22;51065;48.884;12.598;2023-03-23T08:34:56;11.50;99.90
64654;DHT22;51065;48.884;12.598;2023-03-23T08:37:22;11.60;99.90
64654;DHT22;51065;48.884;12.598;2023-03-23T08:39:51;11.60;99.90
64654;DHT22;51065;48.884;12.598;2023-03-23T08:42:17;11.60;99.90
64654;DHT22;51065;48.884;12.598;2023-03-23T08:44:43;11.70;99.90
64654;DHT22;51065;48.884;12.598;2023-03-23T08:47:09;11.70;99.90
64654;DHT22;51065;48.884;12.598;2023-03-23T08:49:35;11.70;99.90
64654;DHT22;51065;48.884;12.598;2023-03-23T08:52:02;11.80;99.90
64654;DHT22;51065;48.884;12.598;2023-03-23T08:54:28;11.80;99.90
64654;DHT22;51065;48.884;12.598;2023-03-23T08:56:55;11.80;99.90
64654;DHT22;51065;48.884;12.598;2023-03-23T08:59:21;11.90;99.90
64654;DHT22;51065;48.884;12.598;2023-03-23T09:01:47;11.90;99.90
64654;DHT22;51065;48.884;12.598;2023-03-23T09:04:12;12.20;99.90
64654;DHT22;51065;48.884;12.598;2023-03-23T09:06:39;12.50;99.90
64654;DHT22;51065;48.884;12.598;2023-03-23T09:09:05;12.90;99.80
64654;DHT22;51065;48.884;12.598;2023-03-23T09:11:35;13.20;99.00
64654;DHT22;51065;48.884;12.598;2023-03-23T09:14:04;13.60;97.90
64654;DHT22;51065;48.884;12.598;2023-03-23T09:16:33;13.70;96.80
64654;DHT22;51065;48.884;12.598;2023-03-23T09:19:19;13.30;96.80
64654;DHT22;51065;48.884;12.598;2023-03-23T09:21:46;13.40;97.90
64654;DHT22;51065;48.884;12.598;2023-03-23T09:24:11;13.90;97.20
64654;DHT22;51065;48.884;12.598;2023-03-23T09:26:37;14.10;96.50
64654;DHT22;51065;48.884;12.598;2023-03-23T09:29:03;14.20;95.50
64654;DHT22;51065;48.884;12.598;2023-03-23T09:31:28;14.40;95.70
64654;DHT22;51065;48.884;12.598;2023-03-23T09:33:57;14.90;94.10
64654;DHT22;51065;48.884;12.598;2023-03-23T09:36:24;15.30;91.80
64654;DHT22;51065;48.884;12.598;2023-03-23T09:38:51;15.80;91.00
64654;DHT22;51065;48.884;12.598;2023-03-23T09:44:08;15.20;90.90
64654;DHT22;51065;48.884;12.598;2023-03-23T09:47:07;15.40;92.60
64654;DHT22;51065;48.884;12.598;2023-03-23T09:49:51;15.70;91.10
64654;DHT22;51065;48.884;12.598;2023-03-23T09:52:18;16.10;89.50
64654;DHT22;51065;48.884;12.598;2023-03-23T09:54:50;16.30;86.00
64654;DHT22;51065;48.884;12.598;2023-03-23T09:59:59;16.70;80.40
64654;DHT22;51065;48.884;12.598;2023-03-23T10:02:34;17.20;78.20
64654;DHT22;51065;48.884;12.598;2023-03-23T10:07:42;17.10;76.90
64654;DHT22;51065;48.884;12.598;2023-03-23T10:10:14;17.30;77.10
64654;DHT22;51065;48.884;12.598;2023-03-23T10:12:49;17.00;73.00
64654;DHT22;51065;48.884;12.598;2023-03-23T10:15:35;17.00;75.10
64654;DHT22;51065;48.884;12.598;2023-03-23T10:18:09;16.90;77.10
64654;DHT22;51065;48.884;12.598;2023-03-23T10:20:48;16.70;76.80
64654;DHT22;51065;48.884;12.598;2023-03-23T10:29:22;16.80;78.00
64654;DHT22;51065;48.884;12.598;2023-03-23T10:31:53;17.40;75.70
64654;DHT22;51065;48.884;12.598;2023-03-23T10:39:58;17.40;70.80
64654;DHT22;51065;48.884;12.598;2023-03-23T10:42:33;16.90;73.60
64654;DHT22;51065;48.884;12.598;2023-03-23T10:45:08;16.70;78.50
64654;DHT22;51065;48.884;12.598;2023-03-23T10:47:38;16.80;79.50
64654;DHT22;51065;48.884;12.598;2023-03-23T10:50:06;16.80;76.10
64654;DHT22;51065;48.884;12.598;2023-03-23T10:52:39;16.60;76.10
64654;DHT22;51065;48.884;12.598;2023-03-23T10:55:14;16.60;76.70
64654;DHT22;51065;48.884;12.598;2023-03-23T10:57:45;17.00;75.80
64654;DHT22;51065;48.884;12.598;2023-03-23T11:00:19;17.30;73.20
64654;DHT22;51065;48.884;12.598;2023-03-23T11:02:56;17.80;70.90
64654;DHT22;51065;48.884;12.598;2023-03-23T11:05:25;18.30;68.70
64654;DHT22;51065;48.884;12.598;2023-03-23T11:07:55;18.60;66.30
64654;DHT22;51065;48.884;12.598;2023-03-23T11:10:27;18.80;64.20
64654;DHT22;51065;48.884;12.598;2023-03-23T11:12:56;19.00;63.30
64654;DHT22;51065;48.884;12.598;2023-03-23T11:15:32;18.80;64.50
64654;DHT22;51065;48.884;12.598;2023-03-23T11:18:02;19.10;64.10
64654;DHT22;51065;48.884;12.598;2023-03-23T11:20:35;19.20;61.70
64654;DHT22;51065;48.884;12.598;2023-03-23T11:23:13;19.20;61.60
64654;DHT22;51065;48.884;12.598;2023-03-23T11:28:37;19.20;63.70
64654;DHT22;51065;48.884;12.598;2023-03-23T11:31:07;19.60;59.40
64654;DHT22;51065;48.884;12.598;2023-03-23T11:33:38;20.10;58.40
64654;DHT22;51065;48.884;12.598;2023-03-23T11:36:06;20.70;55.00
64654;DHT22;51065;48.884;12.598;2023-03-23T11:38:33;20.80;56.00
64654;DHT22;51065;48.884;12.598;2023-03-23T11:40:59;20.90;56.60
64654;DHT22;51065;48.884;12.598;2023-03-23T11:43:26;21.20;55.10
64654;DHT22;51065;48.884;12.598;2023-03-23T11:46:05;21.30;52.90
64654;DHT22;51065;48.884;12.598;2023-03-23T11:51:38;22.90;50.70
64654;DHT22;51065;48.884;12.598;2023-03-23T11:54:21;23.50;46.90
64654;DHT22;51065;48.884;12.598;2023-03-23T11:56:49;23.70;47.30
64654;DHT22;51065;48.884;12.598;2023-03-23T11:59:25;22.80;47.40
64654;DHT22;51065;48.884;12.598;2023-03-23T12:07:42;22.00;45.10
64654;DHT22;51065;48.884;12.598;2023-03-23T12:10:42;21.40;45.40
64654;DHT22;51065;48.884;12.598;2023-03-23T12:13:20;21.60;46.10
64654;DHT22;51065;48.884;12.598;2023-03-23T12:15:57;21.30;45.00
64654;DHT22;51065;48.884;12.598;2023-03-23T12:21:43;21.50;46.30
64654;DHT22;51065;48.884;12.598;2023-03-23T12:27:07;20.80;47.10
64654;DHT22;51065;48.884;12.598;2023-03-23T12:32:19;20.60;48.80
64654;DHT22;51065;48.884;12.598;2023-03-23T12:40:40;20.70;49.60
64654;DHT22;51065;48.884;12.598;2023-03-23T12:43:23;20.70;49.20
64654;DHT22;51065;48.884;12.598;2023-03-23T12:46:14;20.50;46.90
64654;DHT22;51065;48.884;12.598;2023-03-23T12:48:52;20.30;47.60
64654;DHT22;51065;48.884;12.598;2023-03-23T12:51:44;19.90;47.40
64654;DHT22;51065;48.884;12.598;2023-03-23T12:56:58;19.70;49.20
64654;DHT22;51065;48.884;12.598;2023-03-23T13:07:37;19.40;50.50
64654;DHT22;51065;48.884;12.598;2023-03-23T13:12:40;19.20;51.80
64654;DHT22;51065;48.884;12.598;2023-03-23T13:15:27;19.30;52.00
64654;DHT22;51065;48.884;12.598;2023-03-23T13:18:13;19.30;49.80
64654;DHT22;51065;48.884;12.598;2023-03-23T13:29:12;19.70;49.30
64654;DHT22;51065;48.884;12.598;2023-03-23T13:31:16;19.70;50.30
64654;DHT22;51065;48.884;12.598;2023-03-23T13:33:49;19.80;50.30
64654;DHT22;51065;48.884;12.598;2023-03-23T13:36:24;19.90;49.30
64654;DHT22;51065;48.884;12.598;2023-03-23T13:38:50;19.80;50.00
64654;DHT22;51065;48.884;12.598;2023-03-23T13:41:18;19.70;50.80
64654;DHT22;51065;48.884;12.598;2023-03-23T13:43:45;19.80;50.40
64654;DHT22;51065;48.884;12.598;2023-03-23T13:46:36;19.60;51.40
64654;DHT22;51065;48.884;12.598;2023-03-23T13:51:56;19.10;51.60
64654;DHT22;51065;48.884;12.598;2023-03-23T13:56:57;19.10;52.10
64654;DHT22;51065;48.884;12.598;2023-03-23T14:01:52;19.10;51.90
64654;DHT22;51065;48.884;12.598;2023-03-23T14:04:19;19.00;52.70
64654;DHT22;51065;48.884;12.598;2023-03-23T14:06:50;19.00;52.00
64654;DHT22;51065;48.884;12.598;2023-03-23T14:09:26;18.90;52.90
64654;DHT22;51065;48.884;12.598;2023-03-23T14:12:03;18.80;53.90
64654;DHT22;51065;48.884;12.598;2023-03-23T14:14:40;18.80;53.30
64654;DHT22;51065;48.884;12.598;2023-03-23T14:17:27;18.70;53.90
64654;DHT22;51065;48.884;12.598;2023-03-23T14:19:55;18.50;53.00
64654;DHT22;51065;48.884;12.598;2023-03-23T14:22:27;18.40;52.90
64654;DHT22;51065;48.884;12.598;2023-03-23T14:25:13;18.20;53.00
64654;DHT22;51065;48.884;12.598;2023-03-23T14:27:39;18.00;53.50
64654;DHT22;51065;48.884;12.598;2023-03-23T14:30:12;17.90;53.80
64654;DHT22;51065;48.884;12.598;2023-03-23T14:32:38;17.90;54.40
64654;DHT22;51065;48.884;12.598;2023-03-23T14:35:13;17.80;54.00
64654;DHT22;51065;48.884;12.598;2023-03-23T14:37:40;17.80;54.70
64654;DHT22;51065;48.884;12.598;2023-03-23T14:40:14;17.80;55.20
64654;DHT22;51065;48.884;12.598;2023-03-23T14:42:41;17.80;54.30
64654;DHT22;51065;48.884;12.598;2023-03-23T14:45:12;17.70;54.90
64654;DHT22;51065;48.884;12.598;2023-03-23T14:47:44;17.70;55.00
64654;DHT22;51065;48.884;12.598;2023-03-23T14:53:23;17.60;55.70
64654;DHT22;51065;48.884;12.598;2023-03-23T14:55:48;17.70;56.20
64654;DHT22;51065;48.884;12.598;2023-03-23T14:58:17;17.70;55.40
64654;DHT22;51065;48.884;12.598;2023-03-23T15:00:51;17.70;55.90
64654;DHT22;51065;48.884;12.598;2023-03-23T15:03:18;17.80;56.00
64654;DHT22;51065;48.884;12.598;2023-03-23T15:05:47;17.80;56.70
64654;DHT22;51065;48.884;12.598;2023-03-23T15:08:25;17.80;55.90
64654;DHT22;51065;48.884;12.598;2023-03-23T15:11:10;17.90;56.50
64654;DHT22;51065;48.884;12.598;2023-03-23T15:13:41;17.80;56.70
64654;DHT22;51065;48.884;12.598;2023-03-23T15:16:12;17.80;56.90
64654;DHT22;51065;48.884;12.598;2023-03-23T15:18:39;17.70;57.50
64654;DHT22;51065;48.884;12.598;2023-03-23T15:21:11;17.70;58.80
64654;DHT22;51065;48.884;12.598;2023-03-23T15:23:42;17.70;58.60
64654;DHT22;51065;48.884;12.598;2023-03-23T15:26:40;17.70;57.90
64654;DHT22;51065;48.884;12.598;2023-03-23T15:29:16;17.50;57.90
64654;DHT22;51065;48.884;12.598;2023-03-23T15:31:44;17.60;57.90
64654;DHT22;51065;48.884;12.598;2023-03-23T15:34:46;17.50;58.00
64654;DHT22;51065;48.884;12.598;2023-03-23T15:39:45;17.40;58.50
64654;DHT22;51065;48.884;12.598;2023-03-23T15:42:23;17.40;58.60
64654;DHT22;51065;48.884;12.598;2023-03-23T15:50:15;17.40;59.40
64654;DHT22;51065;48.884;12.598;2023-03-23T15:52:41;17.50;60.60
64654;DHT22;51065;48.884;12.598;2023-03-23T15:55:25;17.50;59.40
64654;DHT22;51065;48.884;12.598;2023-03-23T15:57:53;17.40;59.50
64654;DHT22;51065;48.884;12.598;2023-03-23T16:00:20;17.40;59.30
64654;DHT22;51065;48.884;12.598;2023-03-23T16:02:48;17.50;59.80
64654;DHT22;51065;48.884;12.598;2023-03-23T16:05:15;17.50;59.80
64654;DHT22;51065;48.884;12.598;2023-03-23T16:07:41;17.50;61.90
64654;DHT22;51065;48.884;12.598;2023-03-23T16:10:17;17.40;60.90
64654;DHT22;51065;48.884;12.598;2023-03-23T16:12:43;17.30;60.80
64654;DHT22;51065;48.884;12.598;2023-03-23T16:15:09;17.20;61.80
64654;DHT22;51065;48.884;12.598;2023-03-23T16:17:34;17.20;62.60
64654;DHT22;51065;48.884;12.598;2023-03-23T16:20:00;17.10;61.70
64654;DHT22;51065;48.884;12.598;2023-03-23T16:22:27;17.00;63.60
64654;DHT22;51065;48.884;12.598;2023-03-23T16:24:53;17.00;64.30
64654;DHT22;51065;48.884;12.598;2023-03-23T16:27:18;16.90;64.80
64654;DHT22;51065;48.884;12.598;2023-03-23T16:29:45;16.80;64.50
64654;DHT22;51065;48.884;12.598;2023-03-23T16:32:11;16.80;66.90
64654;DHT22;51065;48.884;12.598;2023-03-23T16:34:36;16.70;65.10
64654;DHT22;51065;48.884;12.598;2023-03-23T16:37:03;16.70;63.80
64654;DHT22;51065;48.884;12.598;2023-03-23T16:39:31;16.70;67.10
64654;DHT22;51065;48.884;12.598;2023-03-23T16:41:56;16.60;67.00
64654;DHT22;51065;48.884;12.598;2023-03-23T16:44:22;16.50;67.70
64654;DHT22;51065;48.884;12.598;2023-03-23T16:46:48;16.40;67.70
64654;DHT22;51065;48.884;12.598;2023-03-23T16:49:14;16.40;68.40
64654;DHT22;51065;48.884;12.598;2023-03-23T16:51:39;16.30;67.30
64654;DHT22;51065;48.884;12.598;2023-03-23T16:54:05;16.30;69.80
64654;DHT22;51065;48.884;12.598;2023-03-23T16:56:32;16.20;72.90
64654;DHT22;51065;48.884;12.598;2023-03-23T16:58:57;16.00;73.20
64654;DHT22;51065;48.884;12.598;2023-03-23T17:01:23;15.90;75.30
64654;DHT22;51065;48.884;12.598;2023-03-23T17:03:48;15.80;74.60
64654;DHT22;51065;48.884;12.598;2023-03-23T17:06:14;15.70;75.20
64654;DHT22;51065;48.884;12.598;2023-03-23T17:08:39;15.60;76.80
64654;DHT22;51065;48.884;12.598;2023-03-23T17:11:05;15.50;77.60
64654;DHT22;51065;48.884;12.598;2023-03-23T17:13:31;15.40;81.40
64654;DHT22;51065;48.884;12.598;2023-03-23T17:15:56;15.40;79.00